Time;durP1;ratioP1;P1;durP2;ratioP2;P2;SDS_P1;SDS_P2;PMS_P1;PMS_P2;Temp;Humidity;BMP_temperature;BMP_pressure;BME280_temperature;BME280_humidity;BME280_pressure;Samples;Min_cycle;Max_cycle;Signal;HPM_P1;HPM_P2
2022/04/10 00:02:25;;;;;;;1.93;1.73;;;;;;;2.65;81.45;98930.88;5071874;28;41872;-76
2022/04/10 00:04:53;;;;;;;3.17;2.10;;;;;;;2.55;82.25;98913.75;5078154;28;42288;-75
2022/04/10 00:07:21;;;;;;;2.33;1.60;;;;;;;2.67;82.63;98931.69;5084297;28;40573;-76
2022/04/10 00:09:49;;;;;;;2.53;1.60;;;;;;;2.68;82.19;98936.88;5054263;28;41003;-76
2022/04/10 00:12:17;;;;;;;3.37;1.77;;;;;;;2.44;81.62;98907.09;5070085;28;42838;-76
2022/04/10 00:14:48;;;;;;;2.10;1.90;;;;;;;2.64;82.19;98937.00;5072181;28;42021;-76
2022/04/10 00:17:16;;;;;;;2.47;1.70;;;;;;;2.63;82.35;98940.53;5070699;28;41632;-75
2022/04/10 00:19:47;;;;;;;2.83;1.60;;;;;;;2.61;82.25;98937.94;5052543;28;41694;-76
2022/04/10 00:22:14;;;;;;;1.70;1.60;;;;;;;2.62;81.74;98939.66;5068981;28;43359;-76
2022/04/10 00:24:49;;;;;;;2.07;1.70;;;;;;;2.59;81.45;98938.91;5052699;28;41217;-76
2022/04/10 00:27:17;;;;;;;3.10;1.67;;;;;;;2.56;81.53;98946.84;5069359;28;39223;-75
2022/04/10 00:29:46;;;;;;;2.93;1.80;;;;;;;2.52;81.20;98946.06;5069612;28;41696;-76
2022/04/10 00:32:13;;;;;;;2.77;1.60;;;;;;;2.50;81.44;98946.09;5052455;28;43014;-75
2022/04/10 00:34:41;;;;;;;2.93;1.80;;;;;;;2.48;81.48;98934.84;5052371;28;42185;-76
2022/04/10 00:37:09;;;;;;;2.10;1.30;;;;;;;2.48;82.25;98942.69;5069381;28;40861;-76
2022/04/10 00:39:36;;;;;;;2.23;1.93;;;;;;;2.50;82.58;98927.81;5052550;28;40366;-76
2022/04/10 00:42:05;;;;;;;4.93;1.90;;;;;;;2.42;83.26;98901.06;5069274;28;41897;-75
2022/04/10 00:44:34;;;;;;;2.47;1.83;;;;;;;2.48;82.87;98907.84;5065980;28;41091;-75
2022/04/10 00:47:01;;;;;;;2.37;1.40;;;;;;;2.29;83.22;98863.09;5089431;28;38873;-76
2022/04/10 00:49:29;;;;;;;4.20;1.93;;;;;;;2.61;83.40;98921.41;5072935;28;42044;-75
2022/04/10 00:51:56;;;;;;;2.50;1.90;;;;;;;2.62;83.22;98923.97;5072425;28;42227;-76
2022/04/10 00:54:26;;;;;;;2.47;1.93;;;;;;;2.63;83.62;98914.38;5072567;28;41716;-76
2022/04/10 00:56:55;;;;;;;6.13;1.77;;;;;;;2.65;83.71;98918.66;5072256;28;40302;-75
2022/04/10 00:59:23;;;;;;;4.50;2.33;;;;;;;2.65;83.73;98923.03;5072586;28;40954;-76
2022/04/10 01:01:52;;;;;;;3.30;2.00;;;;;;;2.69;83.94;98929.91;5089085;28;41593;-75
2022/04/10 01:04:19;;;;;;;5.07;2.00;;;;;;;2.71;84.08;98922.88;5089356;28;42429;-76
2022/04/10 01:06:49;;;;;;;3.10;2.00;;;;;;;2.71;84.08;98933.34;5089424;28;41582;-76
2022/04/10 01:09:17;;;;;;;3.47;2.10;;;;;;;2.72;84.00;98935.03;5089362;28;41247;-76
2022/04/10 01:11:45;;;;;;;2.23;2.07;;;;;;;2.72;83.79;98938.50;5088981;28;43066;-76
2022/04/10 01:14:14;;;;;;;2.53;2.07;;;;;;;2.71;83.64;98941.19;5072333;28;41215;-76
2022/04/10 01:16:42;;;;;;;2.33;2.13;;;;;;;2.70;83.77;98950.78;5066470;28;38886;-75
2022/04/10 01:19:11;;;;;;;5.27;2.40;;;;;;;2.67;83.90;98943.03;5069169;28;40649;-76
2022/04/10 01:21:44;;;;;;;2.00;1.77;;;;;;;2.66;83.60;98945.66;5066898;28;43553;-77
2022/04/10 01:24:14;;;;;;;1.60;1.50;;;;;;;2.66;83.92;98945.66;5052301;28;43617;-76
2022/04/10 01:26:43;;;;;;;3.40;2.67;;;;;;;2.64;84.10;98945.72;5068508;28;40839;-76
2022/04/10 01:29:12;;;;;;;2.33;2.00;;;;;;;2.65;83.87;98946.56;5068738;28;40970;-76
2022/04/10 01:31:42;;;;;;;4.47;2.10;;;;;;;2.65;83.71;98959.66;5068156;28;42646;-76
2022/04/10 01:34:13;;;;;;;3.00;2.30;;;;;;;2.63;83.60;98957.06;5068747;28;42095;-76
2022/04/10 01:36:42;;;;;;;2.57;2.30;;;;;;;2.63;83.77;98964.06;5051908;28;39021;-76
2022/04/10 01:39:10;;;;;;;3.80;2.03;;;;;;;2.63;83.80;98961.44;5052572;28;40689;-76
2022/04/10 01:41:41;;;;;;;3.97;2.20;;;;;;;2.61;83.57;98974.56;5068755;28;44150;-75
2022/04/10 01:44:10;;;;;;;3.27;2.20;;;;;;;2.55;83.86;98952.97;5068993;28;42339;-76
2022/04/10 01:46:38;;;;;;;2.77;1.97;;;;;;;2.60;83.55;98956.31;5067734;28;41296;-76
2022/04/10 01:49:08;;;;;;;3.57;2.00;;;;;;;2.61;83.52;98968.47;5069671;28;40822;-75
2022/04/10 01:51:36;;;;;;;3.63;2.20;;;;;;;2.55;83.49;98968.66;5070241;28;42775;-76
2022/04/10 01:54:03;;;;;;;2.13;1.93;;;;;;;2.58;83.34;98976.41;5072160;28;42000;-75
2022/04/10 01:56:31;;;;;;;2.87;2.53;;;;;;;2.55;83.22;98976.50;5089364;28;41049;-76
2022/04/10 01:59:00;;;;;;;4.83;1.87;;;;;;;2.52;83.02;98980.91;5091137;28;41501;-75
2022/04/10 02:01:28;;;;;;;2.87;2.20;;;;;;;2.50;83.36;98979.22;5089311;28;42149;-76
2022/04/10 02:03:56;;;;;;;3.40;2.07;;;;;;;2.49;83.05;98981.00;5123448;27;43282;-76
2022/04/10 02:06:23;;;;;;;2.27;2.07;;;;;;;2.47;82.75;98988.00;5072293;28;38692;-76
2022/04/10 02:08:53;;;;;;;2.67;2.07;;;;;;;2.31;82.74;98971.06;5106066;28;41895;-76
2022/04/10 02:11:23;;;;;;;2.40;2.00;;;;;;;2.37;82.76;98976.09;5072106;28;42815;-76
2022/04/10 02:13:55;;;;;;;5.40;2.40;;;;;;;2.40;82.54;98981.25;5072294;28;40729;-75
2022/04/10 02:16:25;;;;;;;2.27;2.00;;;;;;;2.28;82.26;98967.66;5072334;28;39945;-75
2022/04/10 02:18:53;;;;;;;2.47;1.83;;;;;;;2.32;82.17;98982.38;5105887;28;41517;-77
2022/04/10 02:21:21;;;;;;;2.53;1.97;;;;;;;2.31;82.30;98994.56;5056958;28;41753;-76
2022/04/10 02:23:48;;;;;;;2.43;2.10;;;;;;;2.29;82.11;98996.38;5077436;28;43208;-76
2022/04/10 02:26:15;;;;;;;4.57;2.03;;;;;;;2.26;81.99;99004.28;5055179;28;40310;-76
2022/04/10 02:28:43;;;;;;;2.20;1.90;;;;;;;2.23;81.71;98993.91;5052003;28;40589;-76
2022/04/10 02:31:11;;;;;;;3.20;2.20;;;;;;;2.23;81.82;99008.72;5068711;28;43625;-75
2022/04/10 02:33:40;;;;;;;2.83;2.10;;;;;;;2.21;81.91;99006.19;5052175;28;40983;-76
2022/04/10 02:36:07;;;;;;;3.43;1.80;;;;;;;2.19;81.77;99007.97;5051480;28;39564;-75
2022/04/10 02:38:38;;;;;;;2.57;2.00;;;;;;;2.13;81.09;99001.13;5052492;28;40515;-76
2022/04/10 02:41:06;;;;;;;3.10;1.93;;;;;;;2.11;81.16;99012.50;5051681;28;41754;-76
2022/04/10 02:43:35;;;;;;;2.50;2.00;;;;;;;2.07;81.04;99018.75;5068165;28;43123;-76
2022/04/10 02:46:05;;;;;;;2.70;1.63;;;;;;;2.03;80.99;99022.31;5051916;28;39590;-76
2022/04/10 02:48:38;;;;;;;2.00;1.67;;;;;;;2.00;81.10;99027.59;5065559;28;42494;-76
2022/04/10 02:51:10;;;;;;;2.07;1.60;;;;;;;1.98;81.06;99026.81;5065855;28;43462;-75
2022/04/10 02:53:38;;;;;;;2.30;2.00;;;;;;;1.94;80.67;99022.56;5068383;28;41181;-75
2022/04/10 02:56:06;;;;;;;2.33;1.70;;;;;;;1.93;80.78;99026.06;5068370;28;40186;-76
2022/04/10 02:58:52;;;;;;;5.83;1.97;;;;;;;1.91;80.64;99022.63;5070582;28;43269;-77
2022/04/10 03:01:38;;;;;;;2.00;1.53;;;;;;;1.88;80.72;99027.91;5072349;28;43205;-76
2022/04/10 03:04:24;;;;;;;1.80;1.50;;;;;;;1.80;80.81;99021.16;5072165;28;43769;-75
2022/04/10 03:07:12;;;;;;;1.40;1.23;;;;;;;1.80;80.44;99039.41;5072317;28;40805;-75
2022/04/10 03:09:58;;;;;;;6.27;1.80;;;;;;;1.78;80.61;99033.38;5071828;28;42429;-75
2022/04/10 03:12:44;;;;;;;3.07;2.33;;;;;;;1.76;80.77;99032.53;5071383;28;43608;-76
2022/04/10 03:15:31;;;;;;;3.77;1.77;;;;;;;1.72;80.84;99036.16;5072153;28;43057;-76
2022/04/10 03:18:17;;;;;;;2.93;2.00;;;;;;;1.72;80.95;99043.13;5072317;28;41539;-77
2022/04/10 03:21:04;;;;;;;2.53;2.27;;;;;;;1.67;81.35;99040.59;5069808;28;42456;-76
2022/04/10 03:23:51;;;;;;;2.07;1.73;;;;;;;1.73;81.31;99053.50;5071820;28;44654;-76
2022/04/10 03:26:38;;;;;;;3.87;2.70;;;;;;;1.74;81.53;99042.16;5071454;28;43443;-76
2022/04/10 03:29:25;;;;;;;4.00;2.07;;;;;;;1.74;81.99;99034.34;5072062;28;41596;-75
2022/04/10 03:32:11;;;;;;;4.37;2.10;;;;;;;1.79;81.94;99057.72;5076224;28;43167;-76
2022/04/10 03:34:59;;;;;;;3.33;2.00;;;;;;;1.69;82.03;99025.78;5076270;28;43639;-76
2022/04/10 03:37:45;;;;;;;4.23;2.20;;;;;;;1.81;82.17;99061.16;5071320;28;43109;-76
2022/04/10 03:40:33;;;;;;;5.30;2.63;;;;;;;1.83;82.07;99056.78;5071744;28;42745;-76
2022/04/10 03:43:20;;;;;;;2.73;2.00;;;;;;;1.82;81.91;99065.50;5070985;28;43246;-76
2022/04/10 03:46:06;;;;;;;3.93;2.00;;;;;;;1.84;81.85;99065.47;5070947;28;43540;-76
2022/04/10 03:48:52;;;;;;;2.57;1.90;;;;;;;1.83;81.75;99071.56;5071310;28;42867;-76
2022/04/10 03:51:39;;;;;;;2.47;1.93;;;;;;;1.80;81.83;99068.13;5075479;28;40930;-76
2022/04/10 03:54:26;;;;;;;5.77;2.90;;;;;;;1.79;81.77;99076.88;5091810;28;42148;-76
2022/04/10 03:57:13;;;;;;;2.30;2.07;;;;;;;1.78;81.53;99080.38;5120623;27;43019;-76
2022/04/10 04:00:00;;;;;;;2.93;1.90;;;;;;;1.74;81.44;99077.84;5120706;27;43092;-76
2022/04/10 04:02:48;;;;;;;7.07;2.57;;;;;;;1.76;81.67;99079.53;5120554;27;41538;-75
2022/04/10 04:05:41;;;;;;;4.27;2.37;;;;;;;1.77;81.95;99080.41;5120288;27;43474;-75
2022/04/10 04:08:31;;;;;;;5.30;2.00;;;;;;;1.73;81.72;99082.22;5091418;28;44268;-75
2022/04/10 04:11:18;;;;;;;3.87;2.13;;;;;;;1.74;81.99;99083.94;5089884;28;43822;-76
2022/04/10 04:14:07;;;;;;;2.43;2.00;;;;;;;1.79;82.14;99092.53;5119878;27;41198;-76
2022/04/10 04:16:54;;;;;;;4.60;2.53;;;;;;;1.80;82.27;99099.47;5090852;28;42271;-76
2022/04/10 04:19:40;;;;;;;3.90;2.87;;;;;;;1.83;82.69;99102.91;5107560;27;43527;-76
2022/04/10 04:22:26;;;;;;;3.20;2.57;;;;;;;1.83;82.19;99100.31;5070600;28;43052;-76
2022/04/10 04:25:13;;;;;;;2.57;2.37;;;;;;;1.83;82.17;99102.91;5071154;28;40729;-75
2022/04/10 04:28:00;;;;;;;3.33;2.70;;;;;;;1.89;82.00;99105.38;5070318;28;43061;-76
2022/04/10 04:30:48;;;;;;;3.80;2.60;;;;;;;1.89;81.93;99113.19;5070823;28;43696;-77
2022/04/10 04:33:34;;;;;;;3.33;3.03;;;;;;;1.89;82.05;99113.19;5070704;28;42994;-76
2022/04/10 04:36:21;;;;;;;3.93;2.77;;;;;;;1.89;81.98;99118.41;5070747;28;41725;-76
2022/04/10 04:39:07;;;;;;;7.53;2.70;;;;;;;1.76;81.80;99107.41;5082870;28;42574;-76
2022/04/10 04:41:53;;;;;;;7.23;2.93;;;;;;;1.90;81.91;99135.81;5070641;28;44672;-76
2022/04/10 04:44:39;;;;;;;3.50;2.60;;;;;;;1.89;81.98;99127.13;5070483;28;43795;-76
2022/04/10 04:47:27;;;;;;;3.93;2.70;;;;;;;1.89;81.80;99134.94;5070923;28;41311;-76
2022/04/10 04:50:14;;;;;;;4.93;3.00;;;;;;;1.93;81.86;99144.44;5070345;28;42203;-76
2022/04/10 04:53:02;;;;;;;4.20;2.60;;;;;;;1.93;81.78;99141.81;5070606;28;43541;-75
2022/04/10 04:55:48;;;;;;;4.00;2.37;;;;;;;1.88;81.67;99142.81;5070280;28;43480;-76
2022/04/10 04:58:35;;;;;;;4.67;2.50;;;;;;;1.92;81.58;99154.91;5070698;28;40878;-76
2022/04/10 05:01:22;;;;;;;5.37;2.73;;;;;;;1.92;81.31;99153.16;5070094;28;43268;-76
2022/04/10 05:04:10;;;;;;;3.63;2.73;;;;;;;1.85;81.22;99145.53;5070786;28;44184;-75
2022/04/10 05:06:57;;;;;;;3.67;2.60;;;;;;;1.95;81.46;99157.47;5069383;28;42810;-75
2022/04/10 05:09:44;;;;;;;3.37;2.60;;;;;;;1.96;81.53;99153.97;5089980;28;41508;-76
2022/04/10 05:12:32;;;;;;;5.57;3.10;;;;;;;2.03;81.67;99165.97;5080744;28;42535;-76
2022/04/10 05:15:19;;;;;;;7.73;3.20;;;;;;;1.97;81.75;99143.47;5070487;28;44387;-75
2022/04/10 05:18:09;;;;;;;4.60;2.50;;;;;;;2.15;81.63;99165.69;5070236;28;43768;-75
2022/04/10 05:21:00;;;;;;;5.03;2.87;;;;;;;2.23;81.69;99166.34;5069615;28;40903;-76
2022/04/10 05:23:47;;;;;;;5.47;3.10;;;;;;;2.33;81.40;99172.25;5068932;28;42100;-76
2022/04/10 05:26:38;;;;;;;2.93;2.60;;;;;;;2.52;81.16;99181.31;5069919;28;43678;-76
2022/04/10 05:29:25;;;;;;;3.93;2.67;;;;;;;2.71;80.61;99168.66;5073491;28;42854;-76
2022/04/10 05:32:11;;;;;;;3.43;2.83;;;;;;;2.86;79.88;99189.16;5090171;28;42387;-76
2022/04/10 05:34:58;;;;;;;6.70;2.73;;;;;;;2.81;79.85;99167.53;5090098;28;42969;-76
2022/04/10 05:37:48;;;;;;;4.50;3.23;;;;;;;2.97;79.60;99187.13;5090167;28;44576;-76
2022/04/10 05:40:36;;;;;;;5.60;2.83;;;;;;;3.03;79.41;99192.19;5081404;28;43720;-76
2022/04/10 05:43:22;;;;;;;5.43;2.80;;;;;;;3.12;79.33;99197.19;5070037;28;41622;-75
2022/04/10 05:46:10;;;;;;;4.17;2.53;;;;;;;3.16;78.91;99193.59;5073394;28;43254;-76
2022/04/10 05:48:57;;;;;;;4.77;2.50;;;;;;;3.31;78.72;99196.69;5086683;28;43566;-75
2022/04/10 05:51:44;;;;;;;4.80;2.80;;;;;;;3.44;78.28;99205.91;5089851;28;43817;-76
2022/04/10 05:54:32;;;;;;;3.87;2.50;;;;;;;3.55;78.33;99219.56;5090268;28;40977;-76
2022/04/10 05:57:20;;;;;;;4.77;2.67;;;;;;;3.58;78.33;99222.09;5089592;28;42508;-76
2022/04/10 06:00:16;;;;;;;3.00;2.27;;;;;;;3.61;78.07;99222.00;5089911;28;44479;-75
2022/04/10 06:03:10;;;;;;;4.67;2.80;;;;;;;3.70;77.93;99227.00;5089873;28;44188;-76
2022/04/10 06:06:00;;;;;;;3.60;2.50;;;;;;;3.87;77.62;99229.97;5089741;28;41579;-76
2022/04/10 06:08:54;;;;;;;2.47;2.27;;;;;;;4.31;76.31;99240.88;5087368;28;43358;-76
2022/04/10 06:11:42;;;;;;;2.30;2.10;;;;;;;4.64;75.27;99247.66;5089621;28;44070;-76
2022/04/10 06:14:28;;;;;;;4.33;1.97;;;;;;;4.77;74.23;99242.00;5090122;28;42941;-76
2022/04/10 06:16:56;;;;;;;3.83;2.97;;;;;;;4.90;74.01;99245.94;5082125;28;40035;-75
2022/04/10 06:19:27;;;;;;;3.63;2.70;;;;;;;5.01;73.40;99247.31;5060352;28;41991;-75
2022/04/10 06:21:55;;;;;;;3.57;2.57;;;;;;;5.22;73.49;99247.47;5048299;28;42635;-76
2022/04/10 06:24:22;;;;;;;3.27;2.27;;;;;;;5.16;72.98;99230.19;5048658;28;42091;-76
2022/04/10 06:26:52;;;;;;;3.93;2.27;;;;;;;5.16;72.58;99247.69;5070019;28;41144;-76
2022/04/10 06:29:22;;;;;;;2.67;2.23;;;;;;;5.03;72.59;99247.25;5085223;28;41692;-76
2022/04/10 06:31:55;;;;;;;2.97;2.40;;;;;;;4.92;72.89;99241.50;5086997;28;42816;-76
2022/04/10 06:34:24;;;;;;;3.30;2.43;;;;;;;4.97;73.12;99255.31;5091147;28;42979;-76
2022/04/10 06:36:53;;;;;;;2.97;2.23;;;;;;;5.03;72.98;99253.38;5074065;28;39113;-76
2022/04/10 06:39:22;;;;;;;4.20;2.80;;;;;;;4.95;73.17;99233.50;5092345;28;41836;-77
2022/04/10 06:41:53;;;;;;;2.67;2.10;;;;;;;5.18;72.65;99252.00;5057785;28;41797;-76
2022/04/10 06:44:41;;;;;;;4.10;2.97;;;;;;;5.23;72.42;99265.81;5069068;28;42819;-76
2022/04/10 06:47:16;;;;;;;6.10;2.37;;;;;;;5.35;71.33;99267.16;5104801;28;39961;-76
2022/04/10 06:49:44;;;;;;;2.47;2.27;;;;;;;5.51;71.56;99260.44;5064551;28;40310;-76
2022/04/10 06:52:12;;;;;;;2.47;2.03;;;;;;;5.71;71.36;99267.59;5075034;28;41716;-76
2022/04/10 06:54:42;;;;;;;4.57;2.60;;;;;;;5.80;70.71;99272.56;5075110;28;42468;-76
2022/04/10 06:57:13;;;;;;;3.07;2.53;;;;;;;5.84;70.30;99274.13;5091757;28;39989;-76
2022/04/10 06:59:41;;;;;;;3.53;2.57;;;;;;;5.87;69.04;99283.69;5092370;28;41889;-75
2022/04/10 07:02:12;;;;;;;3.57;2.10;;;;;;;6.06;68.59;99284.72;5062736;28;41772;-75
2022/04/10 07:04:40;;;;;;;3.13;2.30;;;;;;;6.36;67.96;99274.84;5071172;28;42407;-76
2022/04/10 07:07:09;;;;;;;3.27;2.23;;;;;;;7.03;67.35;99290.56;5053077;28;39076;-77
2022/04/10 07:09:38;;;;;;;2.67;2.20;;;;;;;7.53;66.10;99291.94;5054838;28;40722;-77
2022/04/10 07:12:06;;;;;;;4.23;2.63;;;;;;;8.00;63.23;99309.22;5053850;28;41960;-76
2022/04/10 07:14:47;;;;;;;3.13;2.00;;;;;;;8.38;63.20;99318.06;5071275;28;42277;-77
2022/04/10 07:17:15;;;;;;;2.57;2.30;;;;;;;8.85;61.83;99311.41;5074505;28;39965;-76
2022/04/10 07:19:45;;;;;;;3.33;2.63;;;;;;;9.49;59.21;99333.78;5073576;28;40738;-77
2022/04/10 07:24:59;;;;;;;3.43;2.40;;;;;;;11.01;56.99;99330.88;5087229;28;43351;-77
2022/04/10 07:27:27;;;;;;;3.23;2.20;;;;;;;11.45;55.09;99347.78;5073343;28;38837;-75
2022/04/10 07:30:05;;;;;;;3.60;2.87;;;;;;;11.88;54.06;99342.59;5058954;28;41440;-76
2022/04/10 07:32:37;;;;;;;3.27;2.47;;;;;;;12.18;51.83;99359.34;5053636;28;43834;-75
2022/04/10 07:35:13;;;;;;;3.13;2.20;;;;;;;11.86;50.39;99369.25;5066337;28;42969;-75
2022/04/10 07:37:50;;;;;;;2.20;2.00;;;;;;;11.60;52.04;99359.28;5053126;28;39592;-75
2022/04/10 07:40:19;;;;;;;5.73;2.30;;;;;;;11.43;52.79;99335.53;5069574;28;42779;-76
2022/04/10 07:42:47;;;;;;;3.73;2.23;;;;;;;11.59;52.78;99346.97;5086000;28;42852;-76
2022/04/10 07:48:25;;;;;;;3.10;1.90;;;;;;;11.65;51.94;99345.72;5068520;28;40756;-76
2022/04/10 07:50:55;;;;;;;4.33;2.03;;;;;;;11.63;50.66;99368.84;5054068;28;40724;-77
2022/04/10 07:53:28;;;;;;;4.87;1.93;;;;;;;11.52;51.53;99366.81;5054407;28;42470;-76
2022/04/10 07:55:59;;;;;;;4.20;2.30;;;;;;;11.51;51.12;99376.56;5054167;28;41801;-77
2022/04/10 07:58:27;;;;;;;6.13;1.97;;;;;;;11.46;50.72;99383.97;5071341;28;41144;-77
2022/04/10 08:00:58;;;;;;;2.20;1.93;;;;;;;11.47;50.23;99387.47;5070828;28;41551;-76
2022/04/10 08:03:26;;;;;;;3.00;1.50;;;;;;;11.72;50.11;99385.09;5070783;28;42918;-76
2022/04/10 08:06:12;;;;;;;2.80;1.70;;;;;;;11.81;48.98;99397.84;5049980;28;42040;-76
2022/04/10 08:08:44;;;;;;;1.80;1.70;;;;;;;11.99;48.67;99387.09;5052041;28;39746;-79
2022/04/10 08:11:11;;;;;;;3.43;1.57;;;;;;;12.31;46.99;99399.28;5071571;28;41815;-76
2022/04/10 08:13:39;;;;;;;1.60;1.50;;;;;;;12.39;48.31;99381.06;5070485;28;42850;-77
2022/04/10 08:16:08;;;;;;;3.77;2.10;;;;;;;12.46;47.66;99393.03;5065760;28;42166;-76
2022/04/10 08:18:36;;;;;;;2.50;1.50;;;;;;;12.56;47.46;99398.63;5074077;28;38736;-77
2022/04/10 08:21:03;;;;;;;3.60;2.00;;;;;;;12.63;47.99;99401.75;5092005;28;41752;-77
2022/04/10 08:23:31;;;;;;;1.63;1.50;;;;;;;12.54;46.00;99417.31;5091862;28;43988;-77
2022/04/10 08:25:59;;;;;;;3.80;1.40;;;;;;;12.47;45.61;99418.66;5090455;28;41183;-78
2022/04/10 08:28:27;;;;;;;3.63;1.47;;;;;;;13.45;44.47;99431.09;5062085;28;40011;-77
2022/04/10 08:30:54;;;;;;;1.80;0.80;;;;;;;13.65;43.44;99438.63;5052986;28;42003;-76
2022/04/10 08:33:24;;;;;;;2.47;1.23;;;;;;;13.71;43.02;99432.91;5070598;28;42917;-76
2022/04/10 08:35:51;;;;;;;2.97;1.50;;;;;;;14.00;42.78;99430.94;5070077;28;42485;-78
2022/04/10 08:38:19;;;;;;;1.63;1.50;;;;;;;14.44;41.92;99432.44;5068937;28;39833;-77
2022/04/10 08:40:47;;;;;;;4.63;1.40;;;;;;;16.07;41.14;99446.28;5050159;28;42994;-77
2022/04/10 08:43:15;;;;;;;3.77;1.73;;;;;;;18.60;36.16;99476.75;5050081;28;42490;-78
2022/04/10 08:45:45;;;;;;;1.70;1.20;;;;;;;19.51;32.53;99503.66;5050085;28;43162;-78
2022/04/10 08:48:14;;;;;;;2.40;1.20;;;;;;;19.94;33.74;99473.75;5031929;28;41429;-77
2022/04/10 08:50:43;;;;;;;3.57;1.30;;;;;;;20.67;31.40;99506.47;5032723;28;43158;-78
2022/04/10 08:53:11;;;;;;;1.33;1.13;;;;;;;20.08;33.47;99489.47;5051054;28;43511;-78
2022/04/10 08:55:39;;;;;;;3.20;1.57;;;;;;;20.12;33.02;99486.50;5048781;28;42727;-78
2022/04/10 08:58:07;;;;;;;3.37;1.77;;;;;;;19.73;32.87;99481.06;5047330;28;42269;-79
2022/04/10 09:00:35;;;;;;;3.30;1.40;;;;;;;19.22;33.38;99482.03;5065956;28;41951;-78
2022/04/10 09:03:04;;;;;;;2.90;1.70;;;;;;;19.93;32.44;99481.94;5067686;28;42723;-78
2022/04/10 09:05:31;;;;;;;2.20;1.53;;;;;;;20.00;33.18;99464.28;5068982;28;43209;-75
2022/04/10 09:08:09;;;;;;;4.47;1.77;;;;;;;21.94;29.45;99489.66;5050878;28;39962;-77
2022/04/10 09:10:58;;;;;;;2.40;1.70;;;;;;;21.38;30.70;99482.63;5064279;28;41663;-75
2022/04/10 09:13:29;;;;;;;2.87;1.80;;;;;;;23.03;29.87;99494.69;5067877;28;41949;-76
2022/04/10 09:16:13;;;;;;;3.80;1.63;;;;;;;23.79;27.94;99508.25;5067794;28;41912;-76
2022/04/10 09:19:07;;;;;;;2.10;1.47;;;;;;;23.48;28.01;99502.53;5068421;28;39636;-76
2022/04/10 09:21:38;;;;;;;3.80;1.23;;;;;;;22.47;28.86;99460.84;5101251;28;42857;-75
2022/04/10 09:24:09;;;;;;;6.03;1.50;;;;;;;21.63;29.02;99502.63;5069623;28;43204;-78
2022/04/10 09:26:46;;;;;;;1.30;1.13;;;;;;;21.27;30.30;99485.47;5068552;28;42234;-78
2022/04/10 09:29:16;;;;;;;2.57;1.40;;;;;;;21.42;30.38;99481.31;5069232;28;38946;-78
2022/04/10 09:31:44;;;;;;;3.00;1.07;;;;;;;20.93;29.96;99479.75;5069084;28;40661;-78
2022/04/10 09:34:15;;;;;;;5.30;1.50;;;;;;;20.13;30.57;99481.00;5069575;28;43522;-78
2022/04/10 09:36:44;;;;;;;2.53;1.30;;;;;;;19.73;30.77;99486.44;5067419;28;43238;-77
2022/04/10 09:39:15;;;;;;;2.97;1.00;;;;;;;19.65;31.39;99473.72;5069677;28;38882;-78
2022/04/10 09:41:46;;;;;;;1.70;1.17;;;;;;;19.75;31.62;99464.81;5069263;28;42100;-78
2022/04/10 09:44:17;;;;;;;1.80;1.33;;;;;;;19.80;31.96;99468.78;5069367;28;41690;-77
2022/04/10 09:46:59;;;;;;;4.40;1.17;;;;;;;19.56;31.27;99469.16;5069138;28;41347;-78
2022/04/10 09:49:31;;;;;;;1.73;1.13;;;;;;;20.56;29.88;99479.72;5049231;28;40126;-78
2022/04/10 09:52:10;;;;;;;2.03;1.13;;;;;;;19.78;30.05;99494.13;5048772;28;41921;-77
2022/04/10 09:54:41;;;;;;;2.67;1.10;;;;;;;19.54;31.28;99476.50;5066369;28;42727;-77
2022/04/10 09:57:12;;;;;;;3.40;1.10;;;;;;;18.75;30.74;99478.13;5059881;28;42327;-78
2022/04/10 09:59:43;;;;;;;3.90;1.13;;;;;;;19.04;31.65;99472.06;5069855;28;40668;-78
2022/04/10 10:02:11;;;;;;;2.30;0.90;;;;;;;19.69;32.13;99464.38;5052419;28;40538;-77
2022/04/10 10:04:40;;;;;;;2.63;0.90;;;;;;;19.60;31.09;99475.97;5070598;28;42857;-78
2022/04/10 10:07:10;;;;;;;2.40;1.30;;;;;;;19.13;31.55;99472.09;5085005;28;42161;-77
2022/04/10 10:09:40;;;;;;;2.07;0.77;;;;;;;18.75;31.90;99471.91;5073263;28;40646;-77
2022/04/10 10:12:09;;;;;;;1.63;0.70;;;;;;;19.65;31.58;99467.50;5071372;28;41817;-77
2022/04/10 10:14:38;;;;;;;1.80;0.87;;;;;;;20.65;30.42;99468.06;5073092;28;42525;-77
2022/04/10 10:17:07;;;;;;;3.93;1.10;;;;;;;21.42;29.99;99474.06;5054548;28;42928;-77
2022/04/10 10:19:36;;;;;;;1.73;1.00;;;;;;;21.05;30.39;99465.97;5086209;28;40876;-77
2022/04/10 10:22:06;;;;;;;2.50;0.97;;;;;;;22.47;27.47;99479.75;5053593;28;41467;-78
2022/04/10 10:24:38;;;;;;;2.67;1.10;;;;;;;21.42;27.35;99484.00;5035821;28;44504;-78
2022/04/10 10:27:32;;;;;;;3.70;1.00;;;;;;;20.68;28.21;99479.41;5049385;28;41375;-78
2022/04/10 10:30:10;;;;;;;5.17;1.17;;;;;;;23.33;26.23;99484.38;5072406;28;40459;-78
2022/04/10 10:32:43;;;;;;;2.90;1.30;;;;;;;25.54;24.65;99493.34;5072029;28;41720;-77
2022/04/10 10:35:14;;;;;;;2.33;0.93;;;;;;;27.06;23.61;99497.09;5055194;28;41671;-78
2022/04/10 10:37:53;;;;;;;3.53;1.20;;;;;;;28.31;22.55;99493.31;5071786;28;41302;-78
2022/04/10 10:40:22;;;;;;;1.77;1.10;;;;;;;29.76;20.80;99502.59;5069224;28;40599;-78
2022/04/10 10:42:52;;;;;;;4.13;1.37;;;;;;;29.22;19.47;99505.19;5073250;28;42724;-77
2022/04/10 10:45:34;;;;;;;3.00;1.00;;;;;;;27.43;21.53;99499.72;5073426;28;42371;-78
2022/04/10 10:48:25;;;;;;;2.37;1.20;;;;;;;28.52;21.82;99492.44;5072865;28;42963;-78
2022/04/10 10:50:54;;;;;;;3.30;1.10;;;;;;;29.52;19.90;99495.75;5072040;28;39488;-79
2022/04/10 10:53:43;;;;;;;1.90;1.10;;;;;;;28.52;20.64;99487.00;5072145;28;42539;-78
2022/04/10 10:56:15;;;;;;;1.90;1.27;;;;;;;27.99;20.34;99496.47;5069346;28;42729;-77
2022/04/10 10:58:45;;;;;;;2.27;1.33;;;;;;;28.31;20.81;99489.72;5071816;28;41288;-77
2022/04/10 11:01:19;;;;;;;1.60;0.90;;;;;;;27.74;20.81;99487.78;5073135;28;39721;-77
2022/04/10 11:04:03;;;;;;;2.33;1.20;;;;;;;26.47;21.37;99484.16;5055214;28;41669;-77
2022/04/10 11:06:33;;;;;;;2.07;0.80;;;;;;;26.07;21.51;99485.28;5070852;28;43713;-78
2022/04/10 11:09:19;;;;;;;2.80;1.20;;;;;;;25.17;22.80;99480.41;5073112;28;42016;-77
2022/04/10 11:11:48;;;;;;;3.10;1.10;;;;;;;24.16;23.73;99479.91;5071682;28;40191;-78
2022/04/10 11:14:34;;;;;;;2.00;0.93;;;;;;;24.12;24.40;99475.84;5072636;28;42735;-77
2022/04/10 11:17:09;;;;;;;2.67;1.27;;;;;;;26.12;21.39;99477.44;5088713;28;42873;-79
2022/04/10 11:19:38;;;;;;;1.33;1.00;;;;;;;26.64;21.45;99495.75;5072614;28;42499;-78
2022/04/10 11:22:09;;;;;;;2.80;1.03;;;;;;;26.69;22.44;99482.47;5072504;28;40144;-78
2022/04/10 11:24:37;;;;;;;2.10;1.10;;;;;;;27.91;21.30;99470.22;5053987;28;41710;-78
2022/04/10 11:27:06;;;;;;;1.27;0.97;;;;;;;29.54;21.06;99474.56;5072193;28;43787;-80
2022/04/10 11:29:35;;;;;;;1.47;1.03;;;;;;;28.10;20.67;99487.78;5054212;28;42333;-79
2022/04/10 11:32:06;;;;;;;3.60;1.50;;;;;;;26.45;21.18;99485.38;5054091;28;40302;-79
2022/04/10 11:34:41;;;;;;;1.30;1.20;;;;;;;24.91;22.12;99481.47;5072694;28;41655;-77
2022/04/10 11:37:21;;;;;;;2.80;1.40;;;;;;;24.73;23.30;99463.72;5069994;28;42779;-77
2022/04/10 11:39:56;;;;;;;1.83;1.43;;;;;;;25.10;22.95;99466.69;5054483;28;41355;-78
2022/04/10 11:42:24;;;;;;;4.10;1.67;;;;;;;26.68;22.73;99448.16;5070982;28;39626;-78
2022/04/10 11:44:55;;;;;;;2.30;1.27;;;;;;;28.13;22.03;99465.63;5071232;28;41957;-79
2022/04/10 11:47:23;;;;;;;3.10;1.20;;;;;;;28.32;19.70;99480.50;5070676;28;42085;-78
2022/04/10 11:49:53;;;;;;;3.20;1.20;;;;;;;28.86;20.34;99468.03;5072264;28;42070;-78
2022/04/10 11:52:21;;;;;;;2.70;1.20;;;;;;;29.99;19.34;99470.34;5071100;28;39888;-81
2022/04/10 11:54:51;;;;;;;3.80;1.57;;;;;;;28.93;19.83;99479.00;5072061;28;42633;-79
2022/04/10 11:57:20;;;;;;;2.70;1.50;;;;;;;26.93;20.33;99472.41;5070946;28;43866;-79
2022/04/10 11:59:47;;;;;;;3.03;1.43;;;;;;;26.64;20.81;99457.69;5053854;28;41145;-78
2022/04/10 12:02:18;;;;;;;2.20;1.60;;;;;;;27.34;19.81;99470.91;5053757;28;40490;-79
2022/04/10 12:04:49;;;;;;;2.13;1.20;;;;;;;28.77;20.00;99469.19;5071241;28;41536;-78
2022/04/10 12:07:18;;;;;;;2.73;1.10;;;;;;;29.78;19.24;99464.16;5053750;28;43803;-78
2022/04/10 12:09:47;;;;;;;3.00;1.20;;;;;;;30.63;17.88;99482.69;5053551;28;43898;-79
2022/04/10 12:12:15;;;;;;;1.80;1.10;;;;;;;31.33;17.19;99462.00;5071220;28;39967;-78
2022/04/10 12:14:43;;;;;;;1.47;0.93;;;;;;;32.08;17.97;99479.63;5067869;28;41684;-78
2022/04/10 12:17:11;;;;;;;1.73;0.97;;;;;;;31.22;17.55;99487.28;5071548;28;43614;-80
2022/04/10 12:19:40;;;;;;;1.37;1.10;;;;;;;31.59;16.74;99488.44;5071044;28;42311;-79
2022/04/10 12:22:09;;;;;;;2.60;1.20;;;;;;;30.91;17.26;99469.59;5053439;28;39772;-77